sensor_id;sensor_type;location;lat;lon;timestamp;P1;durP1;ratioP1;P2;durP2;ratioP2
78004;SDS011;67209;51.698;-0.292;2023-07-02T00:01:47;20.50;;;7.63;;
78004;SDS011;67209;51.698;-0.292;2023-07-02T00:04:13;19.05;;;8.20;;
78004;SDS011;67209;51.698;-0.292;2023-07-02T00:06:44;16.45;;;7.35;;
78004;SDS011;67209;51.698;-0.292;2023-07-02T00:09:10;17.75;;;7.03;;
78004;SDS011;67209;51.698;-0.292;2023-07-02T00:11:40;16.30;;;7.30;;
78004;SDS011;67209;51.698;-0.292;2023-07-02T00:14:07;21.55;;;6.90;;
78004;SDS011;67209;51.698;-0.292;2023-07-02T00:16:34;19.40;;;6.95;;
78004;SDS011;67209;51.698;-0.292;2023-07-02T00:19:00;16.25;;;8.32;;
78004;SDS011;67209;51.698;-0.292;2023-07-02T00:21:26;20.38;;;8.63;;
78004;SDS011;67209;51.698;-0.292;2023-07-02T00:23:56;16.05;;;7.30;;
78004;SDS011;67209;51.698;-0.292;2023-07-02T00:26:23;16.13;;;7.25;;
78004;SDS011;67209;51.698;-0.292;2023-07-02T00:28:49;21.02;;;7.60;;
78004;SDS011;67209;51.698;-0.292;2023-07-02T00:31:16;23.55;;;8.43;;
78004;SDS011;67209;51.698;-0.292;2023-07-02T00:33:42;17.65;;;7.65;;
78004;SDS011;67209;51.698;-0.292;2023-07-02T00:36:08;19.48;;;7.65;;
78004;SDS011;67209;51.698;-0.292;2023-07-02T00:38:39;19.58;;;7.78;;
78004;SDS011;67209;51.698;-0.292;2023-07-02T00:41:05;20.63;;;7.88;;
78004;SDS011;67209;51.698;-0.292;2023-07-02T00:43:31;16.90;;;7.45;;
78004;SDS011;67209;51.698;-0.292;2023-07-02T00:45:57;16.13;;;7.05;;
78004;SDS011;67209;51.698;-0.292;2023-07-02T00:48:23;21.27;;;7.25;;
78004;SDS011;67209;51.698;-0.292;2023-07-02T00:50:49;16.98;;;7.32;;
78004;SDS011;67209;51.698;-0.292;2023-07-02T00:53:15;21.38;;;7.75;;
78004;SDS011;67209;51.698;-0.292;2023-07-02T00:55:41;18.48;;;7.60;;
78004;SDS011;67209;51.698;-0.292;2023-07-02T00:58:07;22.10;;;7.53;;
78004;SDS011;67209;51.698;-0.292;2023-07-02T01:00:33;14.80;;;7.47;;
78004;SDS011;67209;51.698;-0.292;2023-07-02T01:02:59;20.73;;;8.30;;
78004;SDS011;67209;51.698;-0.292;2023-07-02T01:05:28;17.70;;;7.10;;
78004;SDS011;67209;51.698;-0.292;2023-07-02T01:08:00;17.77;;;6.32;;
78004;SDS011;67209;51.698;-0.292;2023-07-02T01:10:26;14.85;;;7.30;;
78004;SDS011;67209;51.698;-0.292;2023-07-02T01:12:53;23.55;;;6.95;;
78004;SDS011;67209;51.698;-0.292;2023-07-02T01:15:19;20.35;;;7.90;;
78004;SDS011;67209;51.698;-0.292;2023-07-02T01:17:46;23.05;;;7.82;;
78004;SDS011;67209;51.698;-0.292;2023-07-02T01:20:13;22.27;;;7.85;;
78004;SDS011;67209;51.698;-0.292;2023-07-02T01:22:39;18.20;;;6.47;;
78004;SDS011;67209;51.698;-0.292;2023-07-02T01:25:06;25.13;;;6.57;;
78004;SDS011;67209;51.698;-0.292;2023-07-02T01:27:33;18.92;;;6.40;;
78004;SDS011;67209;51.698;-0.292;2023-07-02T01:30:00;21.55;;;6.65;;
78004;SDS011;67209;51.698;-0.292;2023-07-02T01:32:27;14.65;;;6.40;;
78004;SDS011;67209;51.698;-0.292;2023-07-02T01:34:53;18.95;;;6.80;;
78004;SDS011;67209;51.698;-0.292;2023-07-02T01:37:19;18.92;;;6.75;;
78004;SDS011;67209;51.698;-0.292;2023-07-02T01:39:46;17.60;;;7.38;;
78004;SDS011;67209;51.698;-0.292;2023-07-02T01:44:40;20.67;;;7.88;;
78004;SDS011;67209;51.698;-0.292;2023-07-02T01:47:07;19.65;;;6.85;;
78004;SDS011;67209;51.698;-0.292;2023-07-02T01:49:33;17.50;;;6.30;;
78004;SDS011;67209;51.698;-0.292;2023-07-02T01:51:59;19.17;;;7.40;;
78004;SDS011;67209;51.698;-0.292;2023-07-02T01:54:26;19.30;;;7.25;;
78004;SDS011;67209;51.698;-0.292;2023-07-02T01:56:52;20.63;;;7.63;;
78004;SDS011;67209;51.698;-0.292;2023-07-02T01:59:18;17.92;;;6.40;;
78004;SDS011;67209;51.698;-0.292;2023-07-02T02:01:44;18.80;;;7.13;;
78004;SDS011;67209;51.698;-0.292;2023-07-02T02:04:10;19.25;;;7.43;;
78004;SDS011;67209;51.698;-0.292;2023-07-02T02:06:37;20.40;;;7.05;;
78004;SDS011;67209;51.698;-0.292;2023-07-02T02:09:03;20.25;;;7.38;;
78004;SDS011;67209;51.698;-0.292;2023-07-02T02:11:30;21.65;;;7.05;;
78004;SDS011;67209;51.698;-0.292;2023-07-02T02:13:56;18.88;;;6.97;;
78004;SDS011;67209;51.698;-0.292;2023-07-02T02:16:22;20.55;;;6.18;;
78004;SDS011;67209;51.698;-0.292;2023-07-02T02:18:48;18.58;;;7.35;;
78004;SDS011;67209;51.698;-0.292;2023-07-02T02:21:18;17.25;;;7.32;;
78004;SDS011;67209;51.698;-0.292;2023-07-02T02:23:44;23.55;;;7.38;;
78004;SDS011;67209;51.698;-0.292;2023-07-02T02:26:10;16.60;;;5.88;;
78004;SDS011;67209;51.698;-0.292;2023-07-02T02:28:36;18.83;;;6.15;;
78004;SDS011;67209;51.698;-0.292;2023-07-02T02:31:02;16.75;;;6.28;;
78004;SDS011;67209;51.698;-0.292;2023-07-02T02:33:28;16.38;;;6.10;;
78004;SDS011;67209;51.698;-0.292;2023-07-02T02:35:54;18.00;;;7.25;;
78004;SDS011;67209;51.698;-0.292;2023-07-02T02:38:20;20.42;;;7.05;;
78004;SDS011;67209;51.698;-0.292;2023-07-02T02:40:46;16.63;;;6.35;;
78004;SDS011;67209;51.698;-0.292;2023-07-02T02:43:12;17.08;;;6.75;;
78004;SDS011;67209;51.698;-0.292;2023-07-02T02:45:38;16.67;;;6.45;;
78004;SDS011;67209;51.698;-0.292;2023-07-02T02:48:05;21.75;;;7.15;;
78004;SDS011;67209;51.698;-0.292;2023-07-02T02:50:30;19.60;;;6.78;;
78004;SDS011;67209;51.698;-0.292;2023-07-02T02:52:56;17.92;;;6.57;;
78004;SDS011;67209;51.698;-0.292;2023-07-02T02:55:22;18.30;;;6.47;;
78004;SDS011;67209;51.698;-0.292;2023-07-02T02:57:48;16.95;;;7.22;;
78004;SDS011;67209;51.698;-0.292;2023-07-02T03:00:14;19.17;;;6.75;;
78004;SDS011;67209;51.698;-0.292;2023-07-02T03:02:41;19.98;;;6.80;;
78004;SDS011;67209;51.698;-0.292;2023-07-02T03:05:08;21.00;;;6.55;;
78004;SDS011;67209;51.698;-0.292;2023-07-02T03:07:34;15.05;;;6.05;;
78004;SDS011;67209;51.698;-0.292;2023-07-02T03:10:00;19.00;;;7.10;;
78004;SDS011;67209;51.698;-0.292;2023-07-02T03:12:27;16.92;;;6.65;;
78004;SDS011;67209;51.698;-0.292;2023-07-02T03:14:53;20.10;;;7.80;;
78004;SDS011;67209;51.698;-0.292;2023-07-02T03:17:20;20.75;;;5.95;;
78004;SDS011;67209;51.698;-0.292;2023-07-02T03:19:46;17.08;;;7.05;;
78004;SDS011;67209;51.698;-0.292;2023-07-02T03:22:12;20.13;;;7.50;;
78004;SDS011;67209;51.698;-0.292;2023-07-02T03:24:38;18.88;;;6.55;;
78004;SDS011;67209;51.698;-0.292;2023-07-02T03:27:05;17.10;;;7.65;;
78004;SDS011;67209;51.698;-0.292;2023-07-02T03:29:31;17.48;;;6.15;;
78004;SDS011;67209;51.698;-0.292;2023-07-02T03:31:57;14.93;;;6.28;;
78004;SDS011;67209;51.698;-0.292;2023-07-02T03:34:23;17.23;;;7.25;;
78004;SDS011;67209;51.698;-0.292;2023-07-02T03:36:49;21.90;;;6.65;;
78004;SDS011;67209;51.698;-0.292;2023-07-02T03:39:15;16.23;;;6.57;;
78004;SDS011;67209;51.698;-0.292;2023-07-02T03:41:42;18.50;;;6.72;;
78004;SDS011;67209;51.698;-0.292;2023-07-02T03:44:08;17.85;;;6.78;;
78004;SDS011;67209;51.698;-0.292;2023-07-02T03:46:34;17.95;;;6.35;;
78004;SDS011;67209;51.698;-0.292;2023-07-02T03:49:00;17.88;;;7.00;;
78004;SDS011;67209;51.698;-0.292;2023-07-02T03:51:27;16.42;;;6.30;;
78004;SDS011;67209;51.698;-0.292;2023-07-02T03:53:53;18.15;;;6.72;;
78004;SDS011;67209;51.698;-0.292;2023-07-02T03:56:19;17.27;;;6.53;;
78004;SDS011;67209;51.698;-0.292;2023-07-02T03:58:46;19.15;;;6.85;;
78004;SDS011;67209;51.698;-0.292;2023-07-02T04:01:12;15.23;;;6.78;;
78004;SDS011;67209;51.698;-0.292;2023-07-02T04:03:38;16.90;;;6.78;;
78004;SDS011;67209;51.698;-0.292;2023-07-02T04:06:04;20.50;;;7.07;;
78004;SDS011;67209;51.698;-0.292;2023-07-02T04:08:33;17.63;;;7.00;;
78004;SDS011;67209;51.698;-0.292;2023-07-02T04:10:59;21.98;;;7.38;;
78004;SDS011;67209;51.698;-0.292;2023-07-02T04:13:25;15.75;;;6.47;;
78004;SDS011;67209;51.698;-0.292;2023-07-02T04:15:51;18.35;;;6.75;;
78004;SDS011;67209;51.698;-0.292;2023-07-02T04:18:17;19.75;;;6.60;;
78004;SDS011;67209;51.698;-0.292;2023-07-02T04:20:43;18.40;;;6.22;;
78004;SDS011;67209;51.698;-0.292;2023-07-02T04:23:09;16.90;;;6.18;;
78004;SDS011;67209;51.698;-0.292;2023-07-02T04:25:35;18.00;;;7.07;;
78004;SDS011;67209;51.698;-0.292;2023-07-02T04:28:01;14.98;;;6.55;;
78004;SDS011;67209;51.698;-0.292;2023-07-02T04:30:27;19.17;;;6.65;;
78004;SDS011;67209;51.698;-0.292;2023-07-02T04:32:53;18.33;;;6.85;;
78004;SDS011;67209;51.698;-0.292;2023-07-02T04:35:19;16.77;;;5.93;;
78004;SDS011;67209;51.698;-0.292;2023-07-02T04:37:45;19.30;;;6.45;;
78004;SDS011;67209;51.698;-0.292;2023-07-02T04:40:11;15.40;;;6.28;;
78004;SDS011;67209;51.698;-0.292;2023-07-02T04:42:38;20.27;;;6.60;;
78004;SDS011;67209;51.698;-0.292;2023-07-02T04:45:04;22.45;;;6.75;;
78004;SDS011;67209;51.698;-0.292;2023-07-02T04:47:31;16.48;;;6.22;;
78004;SDS011;67209;51.698;-0.292;2023-07-02T04:49:57;17.45;;;6.47;;
78004;SDS011;67209;51.698;-0.292;2023-07-02T04:52:23;19.02;;;6.47;;
78004;SDS011;67209;51.698;-0.292;2023-07-02T04:54:49;20.58;;;6.80;;
78004;SDS011;67209;51.698;-0.292;2023-07-02T04:57:15;15.02;;;5.88;;
78004;SDS011;67209;51.698;-0.292;2023-07-02T04:59:42;17.50;;;6.05;;
78004;SDS011;67209;51.698;-0.292;2023-07-02T05:02:08;20.17;;;6.63;;
78004;SDS011;67209;51.698;-0.292;2023-07-02T05:04:34;21.58;;;6.18;;
78004;SDS011;67209;51.698;-0.292;2023-07-02T05:07:00;13.25;;;5.50;;
78004;SDS011;67209;51.698;-0.292;2023-07-02T05:09:26;14.75;;;5.70;;
78004;SDS011;67209;51.698;-0.292;2023-07-02T05:11:52;18.13;;;6.90;;
78004;SDS011;67209;51.698;-0.292;2023-07-02T05:14:18;18.52;;;6.10;;
78004;SDS011;67209;51.698;-0.292;2023-07-02T05:16:44;16.23;;;6.45;;
78004;SDS011;67209;51.698;-0.292;2023-07-02T05:19:10;18.77;;;6.30;;
78004;SDS011;67209;51.698;-0.292;2023-07-02T05:21:36;17.30;;;6.50;;
78004;SDS011;67209;51.698;-0.292;2023-07-02T05:24:02;17.92;;;5.65;;
78004;SDS011;67209;51.698;-0.292;2023-07-02T05:26:28;16.65;;;5.88;;
78004;SDS011;67209;51.698;-0.292;2023-07-02T05:28:54;16.27;;;6.10;;
78004;SDS011;67209;51.698;-0.292;2023-07-02T05:31:20;15.40;;;6.50;;
78004;SDS011;67209;51.698;-0.292;2023-07-02T05:33:46;18.85;;;5.95;;
78004;SDS011;67209;51.698;-0.292;2023-07-02T05:36:12;18.15;;;6.15;;
78004;SDS011;67209;51.698;-0.292;2023-07-02T05:38:38;14.95;;;5.63;;
78004;SDS011;67209;51.698;-0.292;2023-07-02T05:41:04;15.00;;;6.22;;
78004;SDS011;67209;51.698;-0.292;2023-07-02T05:43:30;14.23;;;5.32;;
78004;SDS011;67209;51.698;-0.292;2023-07-02T05:45:57;12.15;;;5.35;;
78004;SDS011;67209;51.698;-0.292;2023-07-02T05:48:27;14.02;;;6.00;;
78004;SDS011;67209;51.698;-0.292;2023-07-02T05:50:53;13.48;;;5.68;;
78004;SDS011;67209;51.698;-0.292;2023-07-02T05:53:19;12.85;;;4.95;;
78004;SDS011;67209;51.698;-0.292;2023-07-02T05:55:45;14.80;;;5.20;;
78004;SDS011;67209;51.698;-0.292;2023-07-02T05:58:12;14.63;;;5.20;;
78004;SDS011;67209;51.698;-0.292;2023-07-02T06:00:38;14.70;;;4.50;;
78004;SDS011;67209;51.698;-0.292;2023-07-02T06:03:06;13.18;;;4.88;;
78004;SDS011;67209;51.698;-0.292;2023-07-02T06:05:32;14.55;;;5.22;;
78004;SDS011;67209;51.698;-0.292;2023-07-02T06:07:58;15.48;;;4.90;;
78004;SDS011;67209;51.698;-0.292;2023-07-02T06:10:24;10.00;;;4.63;;
78004;SDS011;67209;51.698;-0.292;2023-07-02T06:12:50;15.32;;;5.75;;
78004;SDS011;67209;51.698;-0.292;2023-07-02T06:15:17;10.13;;;4.18;;
78004;SDS011;67209;51.698;-0.292;2023-07-02T06:17:43;11.25;;;4.70;;
78004;SDS011;67209;51.698;-0.292;2023-07-02T06:20:09;10.93;;;4.15;;
78004;SDS011;67209;51.698;-0.292;2023-07-02T06:22:35;13.32;;;5.07;;
78004;SDS011;67209;51.698;-0.292;2023-07-02T06:25:01;11.52;;;3.72;;
78004;SDS011;67209;51.698;-0.292;2023-07-02T06:27:27;10.40;;;4.25;;
78004;SDS011;67209;51.698;-0.292;2023-07-02T06:29:53;10.13;;;3.97;;
78004;SDS011;67209;51.698;-0.292;2023-07-02T06:32:19;12.63;;;4.82;;
78004;SDS011;67209;51.698;-0.292;2023-07-02T06:34:45;10.25;;;4.05;;
78004;SDS011;67209;51.698;-0.292;2023-07-02T06:37:11;9.02;;;4.65;;
78004;SDS011;67209;51.698;-0.292;2023-07-02T06:39:37;14.35;;;4.25;;
78004;SDS011;67209;51.698;-0.292;2023-07-02T06:42:03;11.90;;;4.43;;
78004;SDS011;67209;51.698;-0.292;2023-07-02T06:44:29;12.07;;;4.40;;
78004;SDS011;67209;51.698;-0.292;2023-07-02T06:46:55;10.32;;;3.95;;
78004;SDS011;67209;51.698;-0.292;2023-07-02T06:49:21;8.88;;;3.55;;
78004;SDS011;67209;51.698;-0.292;2023-07-02T06:51:47;14.25;;;3.80;;
78004;SDS011;67209;51.698;-0.292;2023-07-02T06:54:13;9.82;;;3.35;;
78004;SDS011;67209;51.698;-0.292;2023-07-02T06:56:39;11.02;;;3.75;;
78004;SDS011;67209;51.698;-0.292;2023-07-02T06:59:05;12.32;;;4.18;;
78004;SDS011;67209;51.698;-0.292;2023-07-02T07:01:31;11.35;;;4.10;;
78004;SDS011;67209;51.698;-0.292;2023-07-02T07:03:57;10.30;;;3.55;;
78004;SDS011;67209;51.698;-0.292;2023-07-02T07:06:25;7.70;;;3.75;;
78004;SDS011;67209;51.698;-0.292;2023-07-02T07:08:51;8.27;;;3.00;;
78004;SDS011;67209;51.698;-0.292;2023-07-02T07:11:17;8.20;;;3.60;;
78004;SDS011;67209;51.698;-0.292;2023-07-02T07:13:42;10.38;;;3.67;;
78004;SDS011;67209;51.698;-0.292;2023-07-02T07:16:09;8.90;;;3.42;;
78004;SDS011;67209;51.698;-0.292;2023-07-02T07:18:35;10.38;;;3.60;;
78004;SDS011;67209;51.698;-0.292;2023-07-02T07:21:01;9.55;;;3.92;;
78004;SDS011;67209;51.698;-0.292;2023-07-02T07:23:27;6.95;;;3.30;;
78004;SDS011;67209;51.698;-0.292;2023-07-02T07:25:53;9.77;;;3.30;;
78004;SDS011;67209;51.698;-0.292;2023-07-02T07:28:19;9.68;;;2.88;;
78004;SDS011;67209;51.698;-0.292;2023-07-02T07:30:45;8.45;;;3.05;;
78004;SDS011;67209;51.698;-0.292;2023-07-02T07:33:11;10.35;;;2.90;;
78004;SDS011;67209;51.698;-0.292;2023-07-02T07:35:37;7.03;;;3.08;;
78004;SDS011;67209;51.698;-0.292;2023-07-02T07:38:03;7.03;;;3.30;;
78004;SDS011;67209;51.698;-0.292;2023-07-02T07:40:29;8.52;;;3.38;;
78004;SDS011;67209;51.698;-0.292;2023-07-02T07:42:55;7.65;;;3.10;;
78004;SDS011;67209;51.698;-0.292;2023-07-02T07:45:21;9.02;;;3.03;;
78004;SDS011;67209;51.698;-0.292;2023-07-02T07:47:47;7.05;;;3.03;;
78004;SDS011;67209;51.698;-0.292;2023-07-02T07:50:13;9.82;;;3.50;;
78004;SDS011;67209;51.698;-0.292;2023-07-02T07:52:39;7.68;;;3.20;;
78004;SDS011;67209;51.698;-0.292;2023-07-02T07:55:06;10.52;;;3.88;;
78004;SDS011;67209;51.698;-0.292;2023-07-02T07:57:33;8.85;;;3.45;;
78004;SDS011;67209;51.698;-0.292;2023-07-02T07:59:59;7.22;;;3.10;;
78004;SDS011;67209;51.698;-0.292;2023-07-02T08:02:25;9.70;;;3.38;;
78004;SDS011;67209;51.698;-0.292;2023-07-02T08:04:51;13.57;;;3.17;;
78004;SDS011;67209;51.698;-0.292;2023-07-02T08:07:17;7.57;;;3.20;;
78004;SDS011;67209;51.698;-0.292;2023-07-02T08:09:43;9.73;;;3.25;;
78004;SDS011;67209;51.698;-0.292;2023-07-02T08:12:09;7.75;;;2.85;;
78004;SDS011;67209;51.698;-0.292;2023-07-02T08:14:35;7.43;;;3.20;;
78004;SDS011;67209;51.698;-0.292;2023-07-02T08:17:01;6.93;;;3.20;;
78004;SDS011;67209;51.698;-0.292;2023-07-02T08:19:27;5.90;;;2.47;;
78004;SDS011;67209;51.698;-0.292;2023-07-02T08:21:53;6.55;;;3.05;;
78004;SDS011;67209;51.698;-0.292;2023-07-02T08:24:19;8.73;;;3.00;;
78004;SDS011;67209;51.698;-0.292;2023-07-02T08:26:45;6.25;;;2.58;;
78004;SDS011;67209;51.698;-0.292;2023-07-02T08:29:12;8.05;;;2.28;;
78004;SDS011;67209;51.698;-0.292;2023-07-02T08:31:39;8.40;;;3.00;;
78004;SDS011;67209;51.698;-0.292;2023-07-02T08:34:05;11.60;;;3.30;;
78004;SDS011;67209;51.698;-0.292;2023-07-02T08:36:31;6.15;;;2.45;;
78004;SDS011;67209;51.698;-0.292;2023-07-02T08:38:57;7.20;;;2.95;;
78004;SDS011;67209;51.698;-0.292;2023-07-02T08:41:23;9.70;;;2.65;;
78004;SDS011;67209;51.698;-0.292;2023-07-02T08:43:49;7.10;;;2.53;;
78004;SDS011;67209;51.698;-0.292;2023-07-02T08:46:17;6.95;;;3.05;;
78004;SDS011;67209;51.698;-0.292;2023-07-02T08:48:43;8.98;;;3.55;;
78004;SDS011;67209;51.698;-0.292;2023-07-02T08:51:09;8.63;;;3.38;;
78004;SDS011;67209;51.698;-0.292;2023-07-02T08:53:36;8.48;;;3.38;;
78004;SDS011;67209;51.698;-0.292;2023-07-02T08:56:02;10.40;;;3.30;;
78004;SDS011;67209;51.698;-0.292;2023-07-02T08:58:29;9.23;;;3.28;;
78004;SDS011;67209;51.698;-0.292;2023-07-02T09:01:08;6.57;;;2.47;;
78004;SDS011;67209;51.698;-0.292;2023-07-02T09:03:34;6.95;;;3.38;;
78004;SDS011;67209;51.698;-0.292;2023-07-02T09:06:04;6.43;;;3.05;;
78004;SDS011;67209;51.698;-0.292;2023-07-02T09:08:30;9.68;;;2.97;;
78004;SDS011;67209;51.698;-0.292;2023-07-02T09:11:08;9.25;;;3.63;;
78004;SDS011;67209;51.698;-0.292;2023-07-02T09:16:27;8.00;;;2.97;;
78004;SDS011;67209;51.698;-0.292;2023-07-02T09:19:03;5.38;;;2.70;;
78004;SDS011;67209;51.698;-0.292;2023-07-02T09:21:48;7.25;;;2.45;;
78004;SDS011;67209;51.698;-0.292;2023-07-02T09:24:22;8.27;;;3.10;;
78004;SDS011;67209;51.698;-0.292;2023-07-02T09:26:51;7.93;;;3.05;;
78004;SDS011;67209;51.698;-0.292;2023-07-02T09:31:48;10.27;;;2.85;;
78004;SDS011;67209;51.698;-0.292;2023-07-02T09:34:14;8.60;;;2.72;;
78004;SDS011;67209;51.698;-0.292;2023-07-02T09:36:41;9.48;;;2.22;;
78004;SDS011;67209;51.698;-0.292;2023-07-02T09:39:11;7.38;;;2.85;;
78004;SDS011;67209;51.698;-0.292;2023-07-02T09:41:39;6.55;;;2.78;;
78004;SDS011;67209;51.698;-0.292;2023-07-02T09:44:06;8.00;;;2.55;;
78004;SDS011;67209;51.698;-0.292;2023-07-02T09:46:32;7.13;;;3.00;;
78004;SDS011;67209;51.698;-0.292;2023-07-02T09:48:59;7.53;;;2.80;;
78004;SDS011;67209;51.698;-0.292;2023-07-02T09:51:26;9.52;;;2.50;;
78004;SDS011;67209;51.698;-0.292;2023-07-02T09:53:52;10.45;;;3.33;;
78004;SDS011;67209;51.698;-0.292;2023-07-02T09:56:18;7.57;;;2.83;;
78004;SDS011;67209;51.698;-0.292;2023-07-02T09:58:46;9.48;;;3.15;;
78004;SDS011;67209;51.698;-0.292;2023-07-02T10:01:12;5.20;;;2.60;;
78004;SDS011;67209;51.698;-0.292;2023-07-02T10:03:38;7.07;;;2.58;;
78004;SDS011;67209;51.698;-0.292;2023-07-02T10:06:04;6.50;;;2.92;;
78004;SDS011;67209;51.698;-0.292;2023-07-02T10:08:31;6.00;;;3.22;;
78004;SDS011;67209;51.698;-0.292;2023-07-02T10:11:12;9.25;;;3.08;;
78004;SDS011;67209;51.698;-0.292;2023-07-02T10:13:38;10.20;;;3.25;;
78004;SDS011;67209;51.698;-0.292;2023-07-02T10:16:05;5.40;;;2.38;;
78004;SDS011;67209;51.698;-0.292;2023-07-02T10:18:31;9.38;;;2.65;;
78004;SDS011;67209;51.698;-0.292;2023-07-02T10:20:58;6.85;;;2.78;;
78004;SDS011;67209;51.698;-0.292;2023-07-02T10:23:33;9.18;;;3.17;;
78004;SDS011;67209;51.698;-0.292;2023-07-02T10:26:21;8.77;;;3.45;;
78004;SDS011;67209;51.698;-0.292;2023-07-02T10:28:56;6.60;;;2.28;;
78004;SDS011;67209;51.698;-0.292;2023-07-02T10:31:22;10.38;;;3.17;;
78004;SDS011;67209;51.698;-0.292;2023-07-02T10:33:48;8.23;;;3.35;;
78004;SDS011;67209;51.698;-0.292;2023-07-02T10:36:18;10.50;;;3.60;;
78004;SDS011;67209;51.698;-0.292;2023-07-02T10:38:44;7.18;;;2.60;;
78004;SDS011;67209;51.698;-0.292;2023-07-02T10:41:11;7.07;;;2.92;;
78004;SDS011;67209;51.698;-0.292;2023-07-02T10:43:37;7.43;;;2.40;;
78004;SDS011;67209;51.698;-0.292;2023-07-02T10:46:03;8.57;;;2.88;;
78004;SDS011;67209;51.698;-0.292;2023-07-02T10:48:30;8.52;;;3.10;;
78004;SDS011;67209;51.698;-0.292;2023-07-02T10:50:56;8.50;;;3.03;;
78004;SDS011;67209;51.698;-0.292;2023-07-02T10:53:22;7.30;;;3.20;;
78004;SDS011;67209;51.698;-0.292;2023-07-02T10:55:54;8.27;;;3.35;;
78004;SDS011;67209;51.698;-0.292;2023-07-02T10:58:21;8.25;;;3.08;;
78004;SDS011;67209;51.698;-0.292;2023-07-02T11:00:48;6.78;;;2.70;;
78004;SDS011;67209;51.698;-0.292;2023-07-02T11:05:44;8.27;;;3.55;;
78004;SDS011;67209;51.698;-0.292;2023-07-02T11:08:10;6.55;;;2.97;;
78004;SDS011;67209;51.698;-0.292;2023-07-02T11:10:36;5.90;;;2.90;;
78004;SDS011;67209;51.698;-0.292;2023-07-02T11:13:15;6.63;;;2.53;;
78004;SDS011;67209;51.698;-0.292;2023-07-02T11:15:41;8.80;;;3.67;;
78004;SDS011;67209;51.698;-0.292;2023-07-02T11:18:11;6.63;;;2.95;;
78004;SDS011;67209;51.698;-0.292;2023-07-02T11:20:37;8.73;;;3.35;;
78004;SDS011;67209;51.698;-0.292;2023-07-02T11:23:04;9.32;;;2.70;;
78004;SDS011;67209;51.698;-0.292;2023-07-02T11:25:31;7.22;;;2.50;;
78004;SDS011;67209;51.698;-0.292;2023-07-02T11:28:03;8.38;;;2.60;;
78004;SDS011;67209;51.698;-0.292;2023-07-02T11:30:29;7.30;;;2.92;;
78004;SDS011;67209;51.698;-0.292;2023-07-02T11:32:55;6.40;;;2.70;;
78004;SDS011;67209;51.698;-0.292;2023-07-02T11:35:22;7.85;;;2.40;;
78004;SDS011;67209;51.698;-0.292;2023-07-02T11:37:48;6.90;;;2.03;;
78004;SDS011;67209;51.698;-0.292;2023-07-02T11:40:14;7.85;;;2.72;;
78004;SDS011;67209;51.698;-0.292;2023-07-02T11:42:42;6.75;;;2.45;;
78004;SDS011;67209;51.698;-0.292;2023-07-02T11:45:09;6.05;;;2.15;;
78004;SDS011;67209;51.698;-0.292;2023-07-02T11:47:35;6.45;;;2.78;;
78004;SDS011;67209;51.698;-0.292;2023-07-02T11:50:01;6.43;;;2.45;;
78004;SDS011;67209;51.698;-0.292;2023-07-02T11:52:27;7.72;;;2.53;;
78004;SDS011;67209;51.698;-0.292;2023-07-02T11:54:53;10.57;;;2.97;;
78004;SDS011;67209;51.698;-0.292;2023-07-02T11:57:19;7.20;;;2.47;;
78004;SDS011;67209;51.698;-0.292;2023-07-02T11:59:46;6.57;;;2.58;;
78004;SDS011;67209;51.698;-0.292;2023-07-02T12:02:14;6.40;;;2.75;;
78004;SDS011;67209;51.698;-0.292;2023-07-02T12:04:40;6.80;;;2.45;;
78004;SDS011;67209;51.698;-0.292;2023-07-02T12:07:06;6.72;;;2.30;;
78004;SDS011;67209;51.698;-0.292;2023-07-02T12:09:32;6.90;;;2.38;;
78004;SDS011;67209;51.698;-0.292;2023-07-02T12:11:58;5.38;;;2.40;;
78004;SDS011;67209;51.698;-0.292;2023-07-02T12:14:24;7.15;;;2.15;;
78004;SDS011;67209;51.698;-0.292;2023-07-02T12:16:50;5.60;;;2.53;;
78004;SDS011;67209;51.698;-0.292;2023-07-02T12:19:16;5.40;;;2.17;;
78004;SDS011;67209;51.698;-0.292;2023-07-02T12:21:41;6.78;;;2.30;;
78004;SDS011;67209;51.698;-0.292;2023-07-02T12:24:08;6.65;;;1.90;;
78004;SDS011;67209;51.698;-0.292;2023-07-02T12:26:35;5.70;;;2.13;;
78004;SDS011;67209;51.698;-0.292;2023-07-02T12:29:01;5.97;;;1.60;;
78004;SDS011;67209;51.698;-0.292;2023-07-02T12:31:28;7.38;;;2.25;;
78004;SDS011;67209;51.698;-0.292;2023-07-02T12:33:54;4.65;;;2.22;;
78004;SDS011;67209;51.698;-0.292;2023-07-02T12:36:20;5.22;;;2.30;;
78004;SDS011;67209;51.698;-0.292;2023-07-02T12:38:46;6.75;;;2.20;;
78004;SDS011;67209;51.698;-0.292;2023-07-02T12:41:12;5.43;;;2.20;;
78004;SDS011;67209;51.698;-0.292;2023-07-02T12:43:38;4.75;;;1.92;;
78004;SDS011;67209;51.698;-0.292;2023-07-02T12:46:05;6.18;;;2.08;;
78004;SDS011;67209;51.698;-0.292;2023-07-02T12:48:31;6.22;;;2.08;;
78004;SDS011;67209;51.698;-0.292;2023-07-02T12:50:58;7.38;;;2.20;;
78004;SDS011;67209;51.698;-0.292;2023-07-02T12:53:25;6.88;;;1.58;;
78004;SDS011;67209;51.698;-0.292;2023-07-02T12:55:51;5.93;;;1.80;;
78004;SDS011;67209;51.698;-0.292;2023-07-02T12:58:17;5.75;;;2.00;;
78004;SDS011;67209;51.698;-0.292;2023-07-02T13:00:44;4.70;;;2.22;;
78004;SDS011;67209;51.698;-0.292;2023-07-02T13:03:11;5.57;;;1.95;;
78004;SDS011;67209;51.698;-0.292;2023-07-02T13:05:37;7.90;;;2.50;;
78004;SDS011;67209;51.698;-0.292;2023-07-02T13:08:03;5.00;;;2.38;;
78004;SDS011;67209;51.698;-0.292;2023-07-02T13:10:29;5.63;;;1.58;;
78004;SDS011;67209;51.698;-0.292;2023-07-02T13:12:56;6.55;;;2.50;;
78004;SDS011;67209;51.698;-0.292;2023-07-02T13:15:22;6.35;;;2.00;;
78004;SDS011;67209;51.698;-0.292;2023-07-02T13:17:48;7.05;;;2.00;;
78004;SDS011;67209;51.698;-0.292;2023-07-02T13:20:14;6.07;;;1.85;;
78004;SDS011;67209;51.698;-0.292;2023-07-02T13:22:40;9.57;;;1.98;;
78004;SDS011;67209;51.698;-0.292;2023-07-02T13:25:06;3.00;;;1.58;;
78004;SDS011;67209;51.698;-0.292;2023-07-02T13:27:32;6.35;;;1.48;;
78004;SDS011;67209;51.698;-0.292;2023-07-02T13:29:58;4.00;;;1.95;;
78004;SDS011;67209;51.698;-0.292;2023-07-02T13:32:24;6.57;;;1.63;;
78004;SDS011;67209;51.698;-0.292;2023-07-02T13:34:50;6.03;;;2.33;;
78004;SDS011;67209;51.698;-0.292;2023-07-02T13:37:16;3.92;;;1.40;;
78004;SDS011;67209;51.698;-0.292;2023-07-02T13:39:46;3.10;;;1.42;;
78004;SDS011;67209;51.698;-0.292;2023-07-02T13:42:12;8.00;;;1.75;;
78004;SDS011;67209;51.698;-0.292;2023-07-02T13:44:38;8.68;;;1.80;;
78004;SDS011;67209;51.698;-0.292;2023-07-02T13:47:04;6.22;;;1.60;;
78004;SDS011;67209;51.698;-0.292;2023-07-02T13:49:31;5.00;;;1.67;;
78004;SDS011;67209;51.698;-0.292;2023-07-02T13:51:57;4.60;;;1.75;;
78004;SDS011;67209;51.698;-0.292;2023-07-02T13:54:23;3.90;;;1.70;;
78004;SDS011;67209;51.698;-0.292;2023-07-02T13:56:49;9.10;;;1.98;;
78004;SDS011;67209;51.698;-0.292;2023-07-02T13:59:16;8.25;;;2.22;;
78004;SDS011;67209;51.698;-0.292;2023-07-02T14:01:42;6.80;;;2.03;;
78004;SDS011;67209;51.698;-0.292;2023-07-02T14:04:08;7.15;;;1.70;;
78004;SDS011;67209;51.698;-0.292;2023-07-02T14:06:34;5.07;;;1.75;;
78004;SDS011;67209;51.698;-0.292;2023-07-02T14:09:01;6.30;;;2.10;;
78004;SDS011;67209;51.698;-0.292;2023-07-02T14:11:27;7.95;;;2.85;;
78004;SDS011;67209;51.698;-0.292;2023-07-02T14:13:54;5.65;;;2.25;;
78004;SDS011;67209;51.698;-0.292;2023-07-02T14:16:20;5.65;;;1.73;;
78004;SDS011;67209;51.698;-0.292;2023-07-02T14:18:47;5.82;;;2.30;;
78004;SDS011;67209;51.698;-0.292;2023-07-02T14:21:13;7.97;;;2.10;;
78004;SDS011;67209;51.698;-0.292;2023-07-02T14:23:39;6.70;;;2.38;;
78004;SDS011;67209;51.698;-0.292;2023-07-02T14:26:05;6.32;;;2.00;;
78004;SDS011;67209;51.698;-0.292;2023-07-02T14:28:31;6.32;;;2.05;;
78004;SDS011;67209;51.698;-0.292;2023-07-02T14:31:01;4.47;;;2.20;;
78004;SDS011;67209;51.698;-0.292;2023-07-02T14:33:28;7.63;;;3.05;;
78004;SDS011;67209;51.698;-0.292;2023-07-02T14:35:54;6.07;;;2.35;;